Historyczne dane pomiarowe

Dodano dane terminowe – wersja testowa.

Dane z okresu 1951-2019

Wersja bazy: 1.34 [2019-03-16, lista zmian], aktualizacja planowana na 2019-04-15

Dane meteo z obszaru Polski uzyskane na podstawie danych udostępnionych przez Instytut Meteorologii i Gospodarki Wodnej – Państwowy Instytut Badawczy.

 

Wybierz Datę:    

       

TemperaturaWilgotnośćWiatrCiśnienieOpadyŚniegCzas trwania zjawisk
 Stacja t tx tn tng RH VA  wxwx mslp ppp RRR   cm mm wxwxwxwxwxwxwx
1956-11-09 -4.7 -2.6 -8.4-15.5 77.8- 5.0 1.7---- 0.0------------
1956-11-08 -4.3 -0.5 -6.7-11.2 71.0- 0.0 1.7---- 0.0------------
1956-11-07 -2.5 1.1 -4.9 -3.7 72.5- 1.3 3.3---- 0.0------------
1956-11-06 0.3 2.3 0.0 -2.2 80.5- 3.0 4.0---- 1.0------------
1956-11-05 1.8 5.1 -1.4 -5.4 84.3- 6.3 3.7---- 0.6-- 2---------
1956-11-04 0.0 4.0 -2.0 -6.0 78.3- 1.3 1.7---- 0.0-- 2---------
1956-11-03 0.1 4.0 -3.0 -9.5 84.8- 4.3 0.7---- 0.1-- 2---------
1956-11-02 0.2 4.4 -2.8 -8.7 88.8- 2.7 1.0---- 0.0-- 4---------
1956-11-01 -0.4 0.9 -8.9 -7.0 89.5- 8.0 4.3---- 4.9------------
1956-10-31 -4.4 -1.9 -9.5-12.6 67.0- 0.0 1.3---- 0.0------------
1956-10-30 -3.8 0.0 -5.9 -2.3 80.8- 5.3 4.7---- 0.0------------
1956-10-29 1.7 7.7 -0.2 2.2 93.5- 8.0 4.3---- 0.4------------
1956-10-28 8.1 9.2 7.6 7.3 96.5- 8.0 5.0---- 24.1------------
1956-10-27 8.5 9.6 6.8 6.3 95.5- 8.0 4.3---- 0.2------------
1956-10-26 8.2 11.5 7.0 1.9 92.3- 8.0 2.0---- 2.3------------
1956-10-25 10.7 12.9 7.3 4.8 86.5- 6.3 1.7---- 0.0------------
1956-10-24 10.0 13.5 7.5 6.1 91.8- 6.0 1.7---- 0.0------------
1956-10-23 9.7 11.2 8.5 8.9 77.5- 8.0 2.7---- 0.0------------
1956-10-22 11.5 13.4 10.4 7.8 77.5- 6.7 3.0---- 0.0------------
1956-10-21 11.8 14.5 7.5 2.4 85.0- 7.7 2.7---- 0.0------------
1956-10-20 7.9 10.4 4.8 0.7 95.0- 7.3 0.3---- 0.0------------
1956-10-19 9.3 13.1 6.7 9.1 96.3- 6.0 2.3---- 2.5------------
1956-10-18 8.5 10.4 2.7 -3.9 92.8- 8.0 1.3---- 1.4------------
1956-10-17 5.5 12.7 -1.0 -6.0 83.8- 2.7 0.3---- 0.0------------
1956-10-16 5.1 11.5 1.5 -4.0 89.5- 5.3 0.0---- 0.0------------
1956-10-15 5.9 11.6 3.3 0.3 83.5- 0.7 3.0---- 0.0------------
1956-10-14 7.0 10.9 5.0 4.4 79.0- 2.7 4.3---- 0.6------------
1956-10-13 9.9 11.4 8.1 5.3 79.8- 8.0 7.0---- 13.7------------
1956-10-12 9.5 11.6 8.2 6.8 87.3- 7.3 4.7---- 0.0------------
1956-10-11 8.4 10.0 4.7 2.9 82.8- 7.3 3.3---- 0.0------------
1956-10-10 4.3 8.9 -1.5 -9.1 82.0- 4.0 2.0---- 0.5------------
1956-10-09 5.2 8.3 1.3 -2.1 89.8- 2.7 2.7---- 1.2------------
1956-10-08 4.9 7.8 2.1 -2.0 91.3- 7.0 2.7---- 2.4------------
1956-10-07 6.3 7.6 4.3 3.2 92.0- 7.3 9.0---- 12.1------------
1956-10-06 7.3 9.1 4.4 -1.8 98.5- 8.0 3.3---- 49.5------------
1956-10-05 9.8 13.7 7.4 4.2 89.3- 5.3 1.3---- 0.4------------
1956-10-04 8.8 13.4 3.4 -2.0 90.5- 7.3 1.0---- 0.0------------
1956-10-03 13.8 19.0 11.4 5.4 79.5- 5.3 5.0---- 0.0------------
1956-10-02 16.7 24.6 8.5 1.5 77.0- 1.7 1.7---- 0.0------------
1956-10-01 13.9 21.2 3.9 -3.0 84.3- 2.7 1.0---- 0.0------------
1956-09-30 11.5 18.1 8.8 5.8 83.5- 1.7 2.3---- 0.0------------
1956-09-29 16.2 20.7 12.0 10.6 70.8- 4.7 5.0---- 0.0------------
1956-09-28 14.7 20.7 9.9 3.0 81.8- 4.0 2.3---- 0.0------------
1956-09-27 13.6 23.8 3.1 -2.8 76.3- 2.0 1.0---- 0.0------------
1956-09-26 10.9 22.9 0.2 -5.6 82.0- 0.0 0.3---- 0.0------------
1956-09-25 8.2 18.2 1.1 -6.8 79.5- 1.3 2.3---- 0.0------------
1956-09-24 4.8 13.6 -0.6 -7.6 77.8- 1.0 1.0---- 0.0------------
1956-09-23 7.6 14.5 3.3 -1.0 76.3- 1.7 1.7---- 0.0------------
1956-09-22 10.0 17.4 3.4 -3.0 87.8- 1.0 1.0---- 0.0------------
1956-09-21 8.6 18.1 0.7 -5.0 84.8- 0.0 0.3---- 0.0------------
1956-09-20 9.8 17.4 0.2 -5.2 80.0- 4.3 1.7---- 0.0------------
1956-09-19 7.6 14.5 2.0 -4.6 84.8- 4.3 0.7---- 0.0------------
1956-09-18 7.3 13.8 4.9 1.9 81.8- 4.0 3.0---- 0.0------------
1956-09-17 7.1 13.0 6.0 2.9 87.5- 5.0 4.0---- 0.8------------
1956-09-16 10.1 14.6 3.8 -1.9 73.3- 6.7 4.0---- 0.0------------
1956-09-15 10.0 16.4 4.5 0.0 81.8- 4.0 3.0---- 0.0------------
1956-09-14 9.1 15.4 6.3 1.9 82.8- 0.7 2.0---- 0.0------------
1956-09-13 8.9 14.5 6.0 1.9 85.5- 6.3 3.0---- 0.4------------
1956-09-12 10.7 15.0 8.6 5.2 89.3- 5.3 2.0---- 7.3------------
1956-09-11 11.2 13.8 9.9 6.0 97.8- 6.7 0.3---- 2.5------------
225.6 ms

 

Źródłem pochodzenia danych jest Instytut Meteorologii i Gospodarki Wodnej – Państwowy Instytut Badawczy. Dane Instytutu Meteorologii i Gospodarki Wodnej – Państwowego Instytutu Badawczego zostały przetworzone.

Dane źródłowe można odnaleźć na stronie https://dane.imgw.pl